createdAt,value
2018-08-14T00:00:15.094Z,19.1
2018-08-14T00:03:15.809Z,19.1
2018-08-14T00:06:15.063Z,19.1
2018-08-14T00:09:15.334Z,19.1
2018-08-14T00:12:15.787Z,19.1
2018-08-14T00:15:15.023Z,19.1
2018-08-14T00:18:15.613Z,19.0
2018-08-14T00:21:15.814Z,19.0
2018-08-14T00:24:15.115Z,19.0
2018-08-14T00:27:20.523Z,19.0
2018-08-14T00:30:15.744Z,19.1
2018-08-14T00:33:15.731Z,19.1
2018-08-14T00:36:15.022Z,19.0
2018-08-14T00:39:15.609Z,19.1
2018-08-14T00:42:15.787Z,19.1
2018-08-14T00:45:15.120Z,19.1
2018-08-14T00:48:15.064Z,19.0
2018-08-14T00:51:15.194Z,19.0
2018-08-14T00:54:15.242Z,19.0
2018-08-14T00:57:15.461Z,19.0
2018-08-14T01:00:15.576Z,19.0
2018-08-14T01:03:15.779Z,19.0
2018-08-14T01:06:15.137Z,19.0
2018-08-14T01:09:15.471Z,18.9
2018-08-14T01:12:15.791Z,18.8
2018-08-14T01:15:15.409Z,18.7
2018-08-14T01:18:15.430Z,18.8
2018-08-14T01:21:14.933Z,18.8
2018-08-14T01:24:15.246Z,18.8
2018-08-14T01:27:15.483Z,18.9
2018-08-14T01:30:15.600Z,18.8
2018-08-14T01:33:15.807Z,18.8
2018-08-14T01:36:14.919Z,18.9
2018-08-14T01:39:15.279Z,18.9
2018-08-14T01:42:15.562Z,18.9
2018-08-14T01:45:15.730Z,18.8
2018-08-14T01:48:15.301Z,18.8
2018-08-14T01:51:15.637Z,18.8
2018-08-14T01:54:15.917Z,18.8
2018-08-14T01:57:15.218Z,18.8
2018-08-14T02:00:15.471Z,18.8
2018-08-14T02:03:15.616Z,18.7
2018-08-14T02:06:15.772Z,18.8
2018-08-14T02:09:14.992Z,18.7
2018-08-14T02:12:15.333Z,18.8
2018-08-14T02:15:15.500Z,18.8
2018-08-14T02:18:15.810Z,18.7
2018-08-14T02:21:14.923Z,18.7
2018-08-14T02:24:15.645Z,18.7
2018-08-14T02:27:15.709Z,18.6
2018-08-14T02:30:14.925Z,18.6
2018-08-14T02:33:15.185Z,18.7
2018-08-14T02:36:15.482Z,18.6
2018-08-14T02:39:15.635Z,18.6
2018-08-14T02:42:14.974Z,18.6
2018-08-14T02:45:15.319Z,18.5
2018-08-14T02:48:15.731Z,18.4
2018-08-14T02:51:14.998Z,18.4
2018-08-14T02:54:15.148Z,18.4
2018-08-14T02:57:15.598Z,18.3
2018-08-14T03:00:16.884Z,18.3
2018-08-14T03:03:15.084Z,18.3
2018-08-14T03:06:15.264Z,18.4
2018-08-14T03:09:15.506Z,18.4
2018-08-14T03:12:15.711Z,18.5
2018-08-14T03:15:15.879Z,18.4
2018-08-14T03:18:15.222Z,18.4
2018-08-14T03:21:15.509Z,18.4
2018-08-14T03:24:15.896Z,18.4
2018-08-14T03:27:15.285Z,18.5
2018-08-14T03:30:15.575Z,18.5
2018-08-14T03:33:15.870Z,18.5
2018-08-14T03:36:15.132Z,18.5
2018-08-14T03:39:15.561Z,18.4
2018-08-14T03:42:16.074Z,18.5
2018-08-14T03:45:15.204Z,18.5
2018-08-14T03:48:15.554Z,18.4
2018-08-14T03:51:14.913Z,18.4
2018-08-14T03:54:15.137Z,18.4
2018-08-14T03:57:15.326Z,18.4
2018-08-14T04:00:15.605Z,18.3
2018-08-14T04:03:15.918Z,18.3
2018-08-14T04:06:15.178Z,18.3
2018-08-14T04:09:15.425Z,18.3
2018-08-14T04:12:15.728Z,18.3
2018-08-14T04:15:14.982Z,18.3
2018-08-14T04:18:15.250Z,18.3
2018-08-14T04:21:15.526Z,18.2
2018-08-14T04:24:15.818Z,18.2
2018-08-14T04:27:20.983Z,18.2
2018-08-14T04:30:15.234Z,18.2
2018-08-14T04:33:15.341Z,18.2
2018-08-14T04:36:15.578Z,18.2
2018-08-14T04:39:15.899Z,18.2
2018-08-14T04:42:15.070Z,18.2
2018-08-14T04:45:15.346Z,18.2
2018-08-14T04:48:15.583Z,18.3
2018-08-14T04:51:15.853Z,18.2
2018-08-14T04:54:15.072Z,18.2
2018-08-14T04:57:15.419Z,18.2
2018-08-14T05:00:15.425Z,18.1
2018-08-14T05:03:15.844Z,18.3
2018-08-14T05:06:15.116Z,18.5
2018-08-14T05:09:15.409Z,18.6
2018-08-14T05:12:15.635Z,18.8
2018-08-14T05:15:14.831Z,19.0
2018-08-14T05:18:15.050Z,19.0
2018-08-14T05:21:15.769Z,19.2
2018-08-14T05:24:20.473Z,19.3
2018-08-14T05:27:15.476Z,19.3
2018-08-14T05:30:15.828Z,19.3
2018-08-14T05:33:15.271Z,19.3
2018-08-14T05:36:15.563Z,19.2
2018-08-14T05:39:15.842Z,19.2
2018-08-14T05:42:14.994Z,19.2
2018-08-14T05:45:15.124Z,19.0
2018-08-14T05:48:15.572Z,18.9
2018-08-14T05:51:15.092Z,19.0
2018-08-14T05:54:15.214Z,18.9
2018-08-14T05:57:15.413Z,18.9
2018-08-14T06:00:15.799Z,18.9
2018-08-14T06:03:15.113Z,18.9
2018-08-14T06:06:15.246Z,18.9
2018-08-14T06:09:15.504Z,19.0
2018-08-14T06:12:15.651Z,19.0
2018-08-14T06:15:15.840Z,19.2
2018-08-14T06:18:15.197Z,19.2
2018-08-14T06:21:15.403Z,19.3
2018-08-14T06:24:15.707Z,19.5
2018-08-14T06:27:15.826Z,19.5
2018-08-14T06:30:15.037Z,19.5
2018-08-14T06:33:15.259Z,19.5
2018-08-14T06:36:15.453Z,19.5
2018-08-14T06:39:15.768Z,19.4
2018-08-14T06:42:15.941Z,19.4
2018-08-14T06:45:15.141Z,19.3
2018-08-14T06:48:15.417Z,19.2
2018-08-14T06:51:15.620Z,19.3
2018-08-14T06:54:15.015Z,19.5
2018-08-14T06:57:15.271Z,19.6
2018-08-14T07:00:15.480Z,19.9
2018-08-14T07:03:15.702Z,20.0
2018-08-14T07:06:14.950Z,20.0
2018-08-14T07:09:15.194Z,20.4
2018-08-14T07:12:15.421Z,20.7
2018-08-14T07:15:15.685Z,21.2
2018-08-14T07:18:15.030Z,21.9
2018-08-14T07:21:15.417Z,22.1
2018-08-14T07:24:15.642Z,22.1
2018-08-14T07:27:15.906Z,22.0
2018-08-14T07:30:15.149Z,21.8
2018-08-14T07:33:15.336Z,21.5
2018-08-14T07:36:15.684Z,21.8
2018-08-14T07:39:15.265Z,21.7
2018-08-14T07:42:15.277Z,21.8
2018-08-14T07:45:15.466Z,22.0
2018-08-14T07:48:15.740Z,22.2
2018-08-14T07:51:14.974Z,22.5
2018-08-14T07:54:15.108Z,23.1
2018-08-14T07:57:15.322Z,24.0
2018-08-14T08:00:15.837Z,24.9
2018-08-14T08:03:14.982Z,25.6
2018-08-14T08:06:15.276Z,25.8
2018-08-14T08:09:16.134Z,25.3
2018-08-14T08:12:15.796Z,25.5
2018-08-14T08:15:15.381Z,25.8
2018-08-14T08:18:15.999Z,25.9
2018-08-14T08:21:15.500Z,26.2
2018-08-14T08:24:16.078Z,26.4
2018-08-14T08:27:15.850Z,26.9
2018-08-14T08:30:15.412Z,27.6
2018-08-14T08:33:15.422Z,27.6
2018-08-14T08:36:16.111Z,28.2
2018-08-14T08:39:15.984Z,28.1
2018-08-14T08:42:15.590Z,27.5
2018-08-14T08:45:15.512Z,27.4
2018-08-14T08:48:15.534Z,27.9
2018-08-14T08:51:16.298Z,28.9
2018-08-14T08:54:15.996Z,29.0
2018-08-14T08:57:15.640Z,29.7
2018-08-14T09:00:15.521Z,30.3
2018-08-14T09:03:15.668Z,29.7
2018-08-14T09:06:15.349Z,29.8
2018-08-14T09:09:16.106Z,30.9
2018-08-14T09:12:15.718Z,31.0
2018-08-14T09:15:15.552Z,31.0
2018-08-14T09:18:15.502Z,30.3
2018-08-14T09:21:16.447Z,29.0
2018-08-14T09:24:16.060Z,27.7
2018-08-14T09:27:15.775Z,27.7
2018-08-14T09:30:15.234Z,27.1
2018-08-14T09:33:15.986Z,26.5
2018-08-14T09:36:15.269Z,26.3
2018-08-14T09:39:15.985Z,26.2
2018-08-14T09:42:15.445Z,26.1
2018-08-14T09:45:16.031Z,25.9
2018-08-14T09:48:15.553Z,25.7
2018-08-14T09:51:16.091Z,25.7
2018-08-14T09:54:15.710Z,26.0
2018-08-14T09:57:15.343Z,26.4
2018-08-14T10:00:15.145Z,26.4
2018-08-14T10:03:16.014Z,26.6
2018-08-14T10:06:15.897Z,27.1
2018-08-14T10:09:15.677Z,27.2
2018-08-14T10:12:15.321Z,27.0
2018-08-14T10:15:16.208Z,27.2
2018-08-14T10:18:15.912Z,27.2
2018-08-14T10:21:15.456Z,27.3
2018-08-14T10:24:16.173Z,27.5
2018-08-14T10:27:15.838Z,28.7
2018-08-14T10:30:15.525Z,28.8
2018-08-14T10:33:16.363Z,29.6
2018-08-14T10:36:16.138Z,31.4
2018-08-14T10:39:15.832Z,33.0
2018-08-14T10:42:15.564Z,32.9
2018-08-14T10:45:15.294Z,33.8
2018-08-14T10:48:16.106Z,33.7
2018-08-14T10:51:16.019Z,32.3
2018-08-14T10:54:15.852Z,31.8
2018-08-14T10:57:15.521Z,31.1
2018-08-14T11:00:16.292Z,30.4
2018-08-14T11:03:15.844Z,29.8
2018-08-14T11:06:16.216Z,29.7
2018-08-14T11:09:16.216Z,29.8
2018-08-14T11:12:16.009Z,31.2
2018-08-14T11:15:15.648Z,31.7
2018-08-14T11:18:15.556Z,32.1
2018-08-14T11:21:16.243Z,32.3
2018-08-14T11:24:16.065Z,34.6
2018-08-14T11:27:15.723Z,34.6
2018-08-14T11:30:15.468Z,35.2
2018-08-14T11:33:15.987Z,35.9
2018-08-14T11:36:15.824Z,35.4
2018-08-14T11:39:16.483Z,34.6
2018-08-14T11:42:16.126Z,33.8
2018-08-14T11:45:15.706Z,32.8
2018-08-14T11:48:15.932Z,31.9
2018-08-14T11:51:15.592Z,31.6
2018-08-14T11:54:15.965Z,31.8
2018-08-14T11:57:15.853Z,31.3
2018-08-14T12:00:15.534Z,31.6
2018-08-14T12:03:16.193Z,31.5
2018-08-14T12:06:15.991Z,31.4
2018-08-14T12:09:15.788Z,30.9
2018-08-14T12:12:15.580Z,30.6
2018-08-14T12:15:15.549Z,29.5
2018-08-14T12:18:15.353Z,30.0
2018-08-14T12:21:15.896Z,30.3
2018-08-14T12:24:15.478Z,30.2
2018-08-14T12:27:16.272Z,30.3
2018-08-14T12:30:15.991Z,29.8
2018-08-14T12:33:15.655Z,29.4
2018-08-14T12:36:16.337Z,29.7
2018-08-14T12:39:15.915Z,30.0
2018-08-14T12:42:15.752Z,30.2
2018-08-14T12:45:15.387Z,29.9
2018-08-14T12:48:16.200Z,29.9
2018-08-14T12:51:15.997Z,29.9
2018-08-14T12:54:15.653Z,29.8
2018-08-14T12:57:15.777Z,29.5
2018-08-14T13:00:15.491Z,29.3
2018-08-14T13:03:15.821Z,29.0
2018-08-14T13:06:15.599Z,28.9
2018-08-14T13:09:15.436Z,28.5
2018-08-14T13:12:16.314Z,28.8
2018-08-14T13:15:15.980Z,28.6
2018-08-14T13:18:15.719Z,29.0
2018-08-14T13:21:15.498Z,28.5
2018-08-14T13:24:16.178Z,28.7
2018-08-14T13:27:16.186Z,28.9
2018-08-14T13:30:16.070Z,29.2
2018-08-14T13:33:15.886Z,29.0
2018-08-14T13:36:15.646Z,28.5
2018-08-14T13:39:15.360Z,28.2
2018-08-14T13:42:16.034Z,28.3
2018-08-14T13:45:15.818Z,28.8
2018-08-14T13:48:15.543Z,29.1
2018-08-14T13:51:16.193Z,29.0
2018-08-14T13:54:16.194Z,29.0
2018-08-14T13:57:15.719Z,28.8
2018-08-14T14:00:15.524Z,28.6
2018-08-14T14:03:15.825Z,28.2
2018-08-14T14:06:15.496Z,27.8
2018-08-14T14:09:15.333Z,27.7
2018-08-14T14:12:16.109Z,27.6
2018-08-14T14:15:20.738Z,27.6
2018-08-14T14:18:15.489Z,27.7
2018-08-14T14:21:16.085Z,27.8
2018-08-14T14:24:15.906Z,27.9
2018-08-14T14:27:15.488Z,28.0
2018-08-14T14:30:16.412Z,28.0
2018-08-14T14:33:16.321Z,28.0
2018-08-14T14:36:15.879Z,27.9
2018-08-14T14:39:15.524Z,27.9
2018-08-14T14:42:16.092Z,27.9
2018-08-14T14:45:16.905Z,27.7
2018-08-14T14:48:15.685Z,27.8
2018-08-14T14:51:15.439Z,27.7
2018-08-14T14:54:16.134Z,27.7
2018-08-14T14:57:15.718Z,27.8
2018-08-14T15:00:15.288Z,27.9
2018-08-14T15:03:16.314Z,27.8
2018-08-14T15:06:15.902Z,27.6
2018-08-14T15:09:15.436Z,27.5
2018-08-14T15:12:16.397Z,27.4
2018-08-14T15:15:16.113Z,27.3
2018-08-14T15:18:15.894Z,27.5
2018-08-14T15:21:15.575Z,27.6
2018-08-14T15:24:16.249Z,27.7
2018-08-14T15:27:17.025Z,27.6
2018-08-14T15:30:15.780Z,27.6
2018-08-14T15:33:15.431Z,27.5
2018-08-14T15:36:15.952Z,27.5
2018-08-14T15:39:15.779Z,27.3
2018-08-14T15:42:15.958Z,27.4
2018-08-14T15:45:15.397Z,27.3
2018-08-14T15:48:16.166Z,27.3
2018-08-14T15:51:16.033Z,27.2
2018-08-14T15:54:15.625Z,27.2
2018-08-14T15:57:15.305Z,27.2
2018-08-14T16:00:15.715Z,27.1
2018-08-14T16:03:15.745Z,27.1
2018-08-14T16:06:15.822Z,27.1
2018-08-14T16:09:15.371Z,27.1
2018-08-14T16:12:15.961Z,27.1
2018-08-14T16:15:15.407Z,27.0
2018-08-14T16:18:15.154Z,26.9
2018-08-14T16:21:15.860Z,26.8
2018-08-14T16:24:15.614Z,26.7
2018-08-14T16:27:15.040Z,26.6
2018-08-14T16:30:15.521Z,26.5
2018-08-14T16:33:15.995Z,26.5
2018-08-14T16:36:15.465Z,26.5
2018-08-14T16:39:15.114Z,26.5
2018-08-14T16:42:15.581Z,26.4
2018-08-14T16:45:15.913Z,26.5
2018-08-14T16:48:15.510Z,26.5
2018-08-14T16:51:15.984Z,26.3
2018-08-14T16:54:15.293Z,26.2
2018-08-14T16:57:15.711Z,26.1
2018-08-14T17:00:15.169Z,26.0
2018-08-14T17:03:15.423Z,26.0
2018-08-14T17:06:15.864Z,25.9
2018-08-14T17:09:15.440Z,25.9
2018-08-14T17:12:15.841Z,25.9
2018-08-14T17:15:15.744Z,25.9
2018-08-14T17:18:20.589Z,25.9
2018-08-14T17:21:15.254Z,25.9
2018-08-14T17:24:15.310Z,25.9
2018-08-14T17:27:20.556Z,25.9
2018-08-14T17:30:15.659Z,25.7
2018-08-14T17:33:15.269Z,25.7
2018-08-14T17:36:15.461Z,25.6
2018-08-14T17:39:16.239Z,25.6
2018-08-14T17:42:24.981Z,25.6
2018-08-14T17:45:21.341Z,25.5
2018-08-14T17:48:15.231Z,25.3
2018-08-14T17:51:14.977Z,24.9
2018-08-14T17:54:15.301Z,24.7
2018-08-14T17:57:16.021Z,24.3
2018-08-14T18:00:25.156Z,23.4
2018-08-14T18:03:15.507Z,22.7
2018-08-14T18:06:15.388Z,22.4
2018-08-14T18:09:15.062Z,22.0
2018-08-14T18:12:15.522Z,22.0
2018-08-14T18:15:15.799Z,21.8
2018-08-14T18:18:15.097Z,21.6
2018-08-14T18:21:15.270Z,21.6
2018-08-14T18:24:15.171Z,21.6
2018-08-14T18:27:15.451Z,21.6
2018-08-14T18:30:15.653Z,21.5
2018-08-14T18:33:15.310Z,21.6
2018-08-14T18:36:15.202Z,21.5
2018-08-14T18:39:15.257Z,21.5
2018-08-14T18:42:15.909Z,21.5
2018-08-14T18:45:16.059Z,21.5
2018-08-14T18:48:15.282Z,21.4
2018-08-14T18:51:15.073Z,21.3
2018-08-14T18:54:15.577Z,21.3
2018-08-14T18:57:15.908Z,21.2
2018-08-14T19:00:15.322Z,21.2
2018-08-14T19:03:15.771Z,21.2
2018-08-14T19:06:15.085Z,21.2
2018-08-14T19:09:15.303Z,21.1
2018-08-14T19:12:15.665Z,21.1
2018-08-14T19:15:15.357Z,21.2
2018-08-14T19:18:15.303Z,21.1
2018-08-14T19:21:15.568Z,21.2
2018-08-14T19:24:15.894Z,21.1
2018-08-14T19:27:15.261Z,21.1
2018-08-14T19:30:15.477Z,21.0
2018-08-14T19:33:16.033Z,21.0
2018-08-14T19:36:15.241Z,21.0
2018-08-14T19:39:15.479Z,21.0
2018-08-14T19:42:15.824Z,20.9
2018-08-14T19:45:15.169Z,21.0
2018-08-14T19:48:15.401Z,20.9
2018-08-14T19:51:15.552Z,21.0
2018-08-14T19:54:15.997Z,20.9
2018-08-14T19:57:15.512Z,20.9
2018-08-14T20:00:15.932Z,20.9
2018-08-14T20:03:15.555Z,20.9
2018-08-14T20:06:15.543Z,20.8
2018-08-14T20:09:15.785Z,20.8
2018-08-14T20:12:15.106Z,20.8
2018-08-14T20:15:15.358Z,20.8
2018-08-14T20:18:15.578Z,20.6
2018-08-14T20:21:15.852Z,20.6
2018-08-14T20:24:15.366Z,20.6
2018-08-14T20:27:15.824Z,20.6
2018-08-14T20:30:15.155Z,20.6
2018-08-14T20:33:15.437Z,20.6
2018-08-14T20:36:15.631Z,20.6
2018-08-14T20:39:15.100Z,20.6
2018-08-14T20:42:15.282Z,20.6
2018-08-14T20:45:15.460Z,20.5
2018-08-14T20:48:15.742Z,20.5
2018-08-14T20:51:15.142Z,20.5
2018-08-14T20:54:15.435Z,20.5
2018-08-14T20:57:15.696Z,20.5
2018-08-14T21:00:15.144Z,20.5
2018-08-14T21:03:15.356Z,20.5
2018-08-14T21:06:15.707Z,20.4
2018-08-14T21:09:15.235Z,20.5
2018-08-14T21:12:15.837Z,20.4
2018-08-14T21:15:15.263Z,20.5
2018-08-14T21:18:15.428Z,20.5
2018-08-14T21:21:15.794Z,20.5
2018-08-14T21:24:15.334Z,20.5
2018-08-14T21:27:15.640Z,20.5
2018-08-14T21:30:15.792Z,20.4
2018-08-14T21:33:15.231Z,20.4
2018-08-14T21:36:15.463Z,20.3
2018-08-14T21:39:15.674Z,20.3
2018-08-14T21:42:15.024Z,20.2
2018-08-14T21:45:15.343Z,20.2
2018-08-14T21:48:15.595Z,20.2
2018-08-14T21:51:14.969Z,20.1
2018-08-14T21:54:15.247Z,20.1
2018-08-14T21:57:15.541Z,20.1
2018-08-14T22:00:15.754Z,20.1
2018-08-14T22:03:15.358Z,20.2
2018-08-14T22:06:15.740Z,20.1
2018-08-14T22:09:15.123Z,20.1
2018-08-14T22:12:15.476Z,20.0
2018-08-14T22:15:15.752Z,20.1
2018-08-14T22:18:15.401Z,20.1
2018-08-14T22:21:15.679Z,20.1
2018-08-14T22:24:14.934Z,20.1
2018-08-14T22:27:15.109Z,20.1
2018-08-14T22:30:15.407Z,20.0
2018-08-14T22:33:15.788Z,20.0
2018-08-14T22:36:14.942Z,20.0
2018-08-14T22:39:15.060Z,20.1
2018-08-14T22:42:15.374Z,20.1
2018-08-14T22:45:15.644Z,20.1
2018-08-14T22:48:15.880Z,20.1
2018-08-14T22:51:15.280Z,20.1
2018-08-14T22:54:15.564Z,20.1
2018-08-14T22:57:15.935Z,20.1
2018-08-14T23:00:15.252Z,20.1
2018-08-14T23:03:15.722Z,20.2
2018-08-14T23:06:15.024Z,20.3
2018-08-14T23:09:15.523Z,20.2
2018-08-14T23:12:15.768Z,20.2
2018-08-14T23:15:14.820Z,20.2
2018-08-14T23:18:15.244Z,20.2
2018-08-14T23:21:15.900Z,20.2
2018-08-14T23:24:15.159Z,20.2
2018-08-14T23:27:15.363Z,20.1
2018-08-14T23:30:15.543Z,20.1
2018-08-14T23:33:15.898Z,20.1
2018-08-14T23:36:15.169Z,20.1
2018-08-14T23:39:15.247Z,20.1
2018-08-14T23:42:15.457Z,20.1
2018-08-14T23:45:15.624Z,20.0
2018-08-14T23:48:15.867Z,20.0
2018-08-14T23:51:15.027Z,19.9
2018-08-14T23:54:15.090Z,19.9
2018-08-14T23:57:15.204Z,19.9
